Time;durP1;ratioP1;P1;durP2;ratioP2;P2;SDS_P1;SDS_P2;PMS_P1;PMS_P2;Temp;Humidity;BMP_temperature;BMP_pressure;BME280_temperature;BME280_humidity;BME280_pressure;Samples;Min_cycle;Max_cycle;Signal;HPM_P1;HPM_P2
2022/07/25 00:00:11;;;;;;;;;;;;;;;27.16;60.38;101065.94;4968686;28;20281;-95
2022/07/25 00:02:40;;;;;;;;;;;;;;;27.18;60.42;101066.81;4963690;28;19928;-96
2022/07/25 00:05:21;;;;;;;;;;;;;;;27.17;60.72;101073.03;4989773;28;20425;-96
2022/07/25 00:08:03;;;;;;;;;;;;;;;27.16;60.75;101076.66;4984914;28;19924;-96
2022/07/25 00:10:31;;;;;;;;;;;;;;;27.18;60.23;101082.88;4968233;28;19929;-96
2022/07/25 00:13:07;;;;;;;;;;;;;;;27.19;60.21;101081.97;4989339;28;19914;-96
2022/07/25 00:15:42;;;;;;;;;;;;;;;27.16;60.43;101090.06;4991005;28;19929;-96
2022/07/25 00:18:11;;;;;;;;;;;;;;;27.18;60.77;101098.09;4996662;28;20355;-96
2022/07/25 00:20:49;;;;;;;;;;;;;;;27.18;60.38;101100.78;4984161;28;19949;-96
2022/07/25 00:23:17;;;;;;;;;;;;;;;27.19;60.49;101103.41;4968430;28;19945;-96
2022/07/25 00:26:07;;;;;;;;;;;;;;;27.21;60.58;101103.41;4994957;28;19922;-96
2022/07/25 00:28:42;;;;;;;;;;;;;;;27.18;60.55;101107.00;4991193;28;19925;-96
2022/07/25 00:31:18;;;;;;;;;;;;;;;27.16;60.53;101116.00;4963098;28;19961;-96
2022/07/25 00:33:53;;;;;;;;;;;;;;;27.16;60.42;101116.00;4963464;28;19918;-96
2022/07/25 00:36:19;;;;;;;;;;;;;;;27.17;60.51;101117.75;5006309;28;19928;-96
2022/07/25 00:38:49;;;;;;;;;;;;;;;27.17;60.49;101112.38;4982796;28;19921;-96
2022/07/25 00:41:14;;;;;;;;;;;;;;;27.15;60.78;101111.50;4982614;28;19952;-96
2022/07/25 00:43:45;;;;;;;;;;;;;;;27.15;60.53;101104.34;4983406;28;22331;-96
2022/07/25 00:46:27;;;;;;;;;;;;;;;27.13;60.80;101092.75;4982293;28;20040;-95
2022/07/25 00:49:12;;;;;;;;;;;;;;;27.15;60.43;101082.03;4978915;28;19927;-95
2022/07/25 00:51:40;;;;;;;;;;;;;;;27.13;60.70;101079.34;5015312;28;20343;-95
2022/07/25 00:54:09;;;;;;;;;;;;;;;27.13;60.72;101082.03;4982483;28;19925;-96
2022/07/25 00:56:56;;;;;;;;;;;;;;;27.16;60.68;101094.53;4982798;28;19949;-95
2022/07/25 01:02:21;;;;;;;;;;;;;;;27.14;60.74;101126.72;5013120;28;20374;-95
2022/07/25 01:05:03;;;;;;;;;;;;;;;27.15;60.67;101135.63;4977188;28;20275;-96
2022/07/25 01:07:32;;;;;;;;;;;;;;;27.14;60.75;101137.44;4969563;28;19929;-95
2022/07/25 01:10:06;;;;;;;;;;;;;;;27.14;60.77;101137.44;4997834;28;19922;-96
2022/07/25 01:12:32;;;;;;;;;;;;;;;27.14;60.76;101140.13;4981209;28;19922;-89
2022/07/25 01:15:00;;;;;;;;;;;;;;;27.14;60.64;101129.41;4980086;28;19992;-94
2022/07/25 01:17:43;;;;;;;;;;;;;;;27.14;60.85;101136.56;4979961;28;19925;-96
2022/07/25 01:20:25;;;;;;;;;;;;;;;27.12;60.80;101135.69;4971185;28;19917;-96
2022/07/25 01:23:03;;;;;;;;;;;;;;;27.12;60.68;101139.25;4991107;28;19922;-95
2022/07/25 01:25:47;;;;;;;;;;;;;;;27.14;61.03;101149.97;4981104;28;19918;-96
2022/07/25 01:28:17;;;;;;;;;;;;;;;27.14;61.00;101158.88;4986432;28;20362;-95
2022/07/25 01:30:51;;;;;;;;;;;;;;;27.12;61.13;101176.78;5014588;28;19929;-95
2022/07/25 01:33:18;;;;;;;;;;;;;;;27.10;60.96;101188.41;4983256;28;19922;-96
2022/07/25 01:35:47;;;;;;;;;;;;;;;27.02;61.38;101185.78;4965640;28;20403;-96
2022/07/25 01:38:15;;;;;;;;;;;;;;;27.10;61.19;101183.94;4971791;28;19929;-95
2022/07/25 01:40:40;;;;;;;;;;;;;;;27.10;60.97;101194.66;4963329;28;19929;-96
2022/07/25 01:43:20;;;;;;;;;;;;;;;27.01;61.44;101201.00;4978682;28;19925;-95
2022/07/25 01:45:51;;;;;;;;;;;;;;;27.03;61.36;101192.94;4975084;28;19934;-96
2022/07/25 01:48:52;;;;;;;;;;;;;;;27.04;61.33;101196.50;4960218;28;19926;-95
2022/07/25 01:51:24;;;;;;;;;;;;;;;27.05;61.63;101198.28;4990556;28;20735;-94
2022/07/25 01:53:52;;;;;;;;;;;;;;;26.95;61.56;101187.63;4956530;28;19922;-94
2022/07/25 01:58:56;;;;;;;;;;;;;;;27.00;61.46;101193.81;5047207;23;19910;-96
2022/07/25 02:02:05;;;;;;;;;;;;;;;27.02;61.58;101185.78;5037007;23;19964;-96
2022/07/25 02:05:14;;;;;;;;;;;;;;;27.00;61.63;101172.38;4974205;28;20361;-96
2022/07/25 02:07:43;;;;;;;;;;;;;;;26.95;61.67;101174.22;4973732;28;19926;-93
2022/07/25 02:13:11;;;;;;;;;;;;;;;26.98;61.52;101174.19;4988848;28;19920;-95
2022/07/25 02:15:44;;;;;;;;;;;;;;;26.96;61.58;101165.25;4976614;28;19921;-94
2022/07/25 02:18:23;;;;;;;;;;;;;;;26.96;61.27;101165.25;4960791;28;20417;-94
2022/07/25 02:20:49;;;;;;;;;;;;;;;26.98;61.40;101166.16;4972994;28;19914;-95
2022/07/25 02:23:20;;;;;;;;;;;;;;;27.02;61.08;101157.19;4968665;28;20023;-95
2022/07/25 02:25:53;;;;;;;;;;;;;;;26.99;61.32;101159.03;4987435;28;19914;-95
2022/07/25 02:28:49;;;;;;;;;;;;;;;26.98;60.98;101147.38;4985098;28;20376;-95
2022/07/25 02:31:15;;;;;;;;;;;;;;;26.99;60.69;101153.66;4987643;28;19918;-93
2022/07/25 02:33:55;;;;;;;;;;;;;;;27.01;60.81;101154.53;4969360;28;20281;-93
2022/07/25 02:36:54;;;;;;;;;;;;;;;26.98;60.80;101144.69;4989640;28;19926;-95
2022/07/25 02:39:42;;;;;;;;;;;;;;;26.96;60.87;101142.94;4991271;28;20414;-95
2022/07/25 02:42:09;;;;;;;;;;;;;;;26.97;60.54;101150.97;4990568;28;19922;-95
2022/07/25 02:47:37;;;;;;;;;;;;;;;27.00;60.16;101142.00;4984748;28;20005;-93
2022/07/25 02:50:05;;;;;;;;;;;;;;;26.97;60.53;101132.22;4959730;28;20403;-91
2022/07/25 02:52:42;;;;;;;;;;;;;;;26.96;60.36;101134.91;4957308;28;19925;-94
2022/07/25 02:55:09;;;;;;;;;;;;;;;26.97;60.44;101132.22;4973871;28;19917;-96
2022/07/25 02:57:54;;;;;;;;;;;;;;;26.97;60.43;101131.34;4958821;28;19922;-94
2022/07/25 03:00:20;;;;;;;;;;;;;;;26.97;60.50;101115.25;4969841;28;19984;-95
2022/07/25 03:03:01;;;;;;;;;;;;;;;26.95;60.54;101107.22;4959967;28;20386;-95
2022/07/25 03:05:40;;;;;;;;;;;;;;;26.89;60.45;101095.66;4950731;28;19918;-95
2022/07/25 03:11:16;;;;;;;;;;;;;;;26.94;60.33;101085.78;4987159;28;20012;-93
2022/07/25 03:16:45;;;;;;;;;;;;;;;26.94;59.90;101085.78;4986854;28;20351;-94
2022/07/25 03:19:13;;;;;;;;;;;;;;;26.95;60.13;101084.88;4958358;28;19925;-94
2022/07/25 03:21:39;;;;;;;;;;;;;;;26.75;59.71;101045.72;4958485;28;19934;-94
2022/07/25 03:24:23;;;;;;;;;;;;;;;26.96;60.06;101075.94;4956495;28;20372;-94
2022/07/25 03:26:51;;;;;;;;;;;;;;;26.93;60.15;101075.97;4974455;28;20012;-94
2022/07/25 03:29:20;;;;;;;;;;;;;;;26.92;59.99;101068.81;4958724;28;19918;-94
2022/07/25 03:31:55;;;;;;;;;;;;;;;26.92;59.75;101063.47;4974384;28;19928;-95
2022/07/25 03:34:28;;;;;;;;;;;;;;;26.90;59.82;101059.91;4952689;28;19922;-95
2022/07/25 03:37:06;;;;;;;;;;;;;;;26.87;59.86;101060.81;4959480;28;19922;-96
2022/07/25 03:39:54;;;;;;;;;;;;;;;26.91;59.95;101059.91;4961506;28;19998;-96
2022/07/25 03:42:23;;;;;;;;;;;;;;;26.76;60.18;101038.59;4971565;28;19930;-95
2022/07/25 03:44:49;;;;;;;;;;;;;;;26.94;59.66;101064.34;4974575;28;19918;-96
2022/07/25 03:47:14;;;;;;;;;;;;;;;26.82;60.21;101060.00;4958444;28;20375;-96
2022/07/25 03:52:50;;;;;;;;;;;;;;;26.90;59.86;101043.81;4985389;28;19926;-93
2022/07/25 03:55:23;;;;;;;;;;;;;;;26.94;59.77;101042.91;4986759;28;20323;-94
2022/07/25 03:57:51;;;;;;;;;;;;;;;26.96;59.39;101038.41;4973665;28;19926;-96
2022/07/25 04:00:40;;;;;;;;;;;;;;;26.98;59.46;101031.25;4959699;28;19918;-95
2022/07/25 04:05:48;;;;;;;;;;;;;;;26.69;60.36;101032.41;5246984;23;19930;-95
2022/07/25 04:08:14;;;;;;;;;;;;;;;26.75;60.45;101029.66;4959228;28;20297;-92
2022/07/25 04:10:42;;;;;;;;;;;;;;;26.68;60.72;101032.41;4958719;28;20383;-94
2022/07/25 04:13:07;;;;;;;;;;;;;;;26.77;60.47;101051.97;4959437;28;20402;-93
2022/07/25 04:18:53;;;;;;;;;;;;;;;26.81;60.28;101106.44;4992279;28;19933;-95
2022/07/25 04:21:35;;;;;;;;;;;;;;;26.81;60.43;101126.06;4960544;28;19918;-95
2022/07/25 04:24:01;;;;;;;;;;;;;;;26.76;60.67;101140.41;4961269;28;19922;-94
2022/07/25 04:26:49;;;;;;;;;;;;;;;26.83;60.49;101157.34;4954690;28;19929;-95
2022/07/25 04:29:15;;;;;;;;;;;;;;;26.85;60.19;101158.22;4973456;28;19922;-95
2022/07/25 04:32:09;;;;;;;;;;;;;;;26.87;60.24;101164.47;4965211;28;19957;-94
2022/07/25 04:34:41;;;;;;;;;;;;;;;26.88;59.68;101172.50;4976324;28;20025;-93
2022/07/25 04:37:13;;;;;;;;;;;;;;;26.46;60.56;101187.88;4978908;28;19922;-93
2022/07/25 04:39:44;;;;;;;;;;;;;;;26.52;60.66;101197.66;4965664;28;19957;-94
2022/07/25 04:42:14;;;;;;;;;;;;;;;26.64;60.67;101200.31;4978444;28;19932;-93
2022/07/25 04:44:55;;;;;;;;;;;;;;;26.79;59.99;101196.66;4963668;28;19918;-92
2022/07/25 04:47:21;;;;;;;;;;;;;;;26.86;59.94;101198.41;4963418;28;19925;-90
2022/07/25 04:50:01;;;;;;;;;;;;;;;26.85;59.90;101195.75;4959494;28;19917;-93
2022/07/25 04:52:34;;;;;;;;;;;;;;;26.85;59.80;101193.06;4978723;28;19921;-90
2022/07/25 04:55:15;;;;;;;;;;;;;;;26.84;60.18;101193.94;5004168;28;19917;-94
2022/07/25 05:00:43;;;;;;;;;;;;;;;26.82;59.80;101204.69;4988715;28;19925;-93
2022/07/25 05:03:32;;;;;;;;;;;;;;;26.89;60.06;101202.88;4961972;28;19922;-92
2022/07/25 05:05:58;;;;;;;;;;;;;;;26.85;59.78;101204.66;4994720;28;20012;-89
2022/07/25 05:08:25;;;;;;;;;;;;;;;26.71;60.02;101190.44;4994109;28;19968;-91
2022/07/25 05:10:52;;;;;;;;;;;;;;;26.70;60.42;101194.94;4959309;28;20020;-91
2022/07/25 05:13:19;;;;;;;;;;;;;;;26.67;60.44;101191.38;4977275;28;19924;-91
2022/07/25 05:15:44;;;;;;;;;;;;;;;26.66;60.57;101195.84;4961127;28;19917;-91
2022/07/25 05:18:11;;;;;;;;;;;;;;;26.72;60.20;101198.50;4960975;28;20368;-91
2022/07/25 05:20:36;;;;;;;;;;;;;;;26.80;60.22;101187.75;4976649;28;19918;-90
2022/07/25 05:23:10;;;;;;;;;;;;;;;26.85;60.08;101198.41;4975208;28;19924;-91
2022/07/25 05:25:59;;;;;;;;;;;;;;;26.77;60.08;101207.38;4990679;28;19996;-90
2022/07/25 05:28:37;;;;;;;;;;;;;;;26.83;59.94;101214.50;4993725;28;19917;-91
2022/07/25 05:31:02;;;;;;;;;;;;;;;26.85;60.03;101212.69;4991878;28;19928;-89
2022/07/25 05:33:34;;;;;;;;;;;;;;;26.81;60.05;101210.94;4972298;28;19917;-92
2022/07/25 05:36:02;;;;;;;;;;;;;;;26.88;59.65;101201.97;4992767;28;19953;-92
2022/07/25 05:38:27;;;;;;;;;;;;;;;26.91;59.37;101201.94;4981783;28;19929;-86
2022/07/25 05:40:53;;;;;;;;;;;;;;;26.90;59.48;101201.94;4977537;28;19918;-87
2022/07/25 05:43:19;;;;;;;;;;;;;;;26.90;59.70;101204.63;4953085;28;19929;-87
2022/07/25 05:45:46;;;;;;;;;;;;;;;26.88;59.84;101207.34;4971999;28;19922;-88
2022/07/25 05:48:12;;;;;;;;;;;;;;;26.91;59.64;101211.78;4975839;28;20336;-89
2022/07/25 05:50:37;;;;;;;;;;;;;;;26.80;59.71;101209.16;4955012;28;19921;-85
2022/07/25 05:53:03;;;;;;;;;;;;;;;26.88;59.60;101209.09;4971967;28;19922;-84
2022/07/25 05:55:28;;;;;;;;;;;;;;;26.89;59.75;101210.91;4968497;28;19928;-85
2022/07/25 05:57:54;;;;;;;;;;;;;;;26.90;59.41;101207.31;4985489;28;19925;-86
2022/07/25 06:00:19;;;;;;;;;;;;;;;26.93;59.62;101209.97;4947756;28;19976;-84
2022/07/25 06:02:45;;;;;;;;;;;;;;;26.89;59.59;101206.41;4974279;28;19929;-86
2022/07/25 06:05:10;;;;;;;;;;;;;;;26.92;59.62;101205.50;4969675;28;19945;-86
2022/07/25 06:07:36;;;;;;;;;;;;;;;26.90;59.59;101202.88;4967188;28;19928;-86
2022/07/25 06:10:02;;;;;;;;;;;;;;;26.87;59.67;101202.88;4988942;28;19921;-86
2022/07/25 06:12:27;;;;;;;;;;;;;;;26.93;59.35;101197.47;4973408;28;19973;-86
2022/07/25 06:14:53;;;;;;;;;;;;;;;26.89;59.71;101194.81;4988927;28;20023;-86
2022/07/25 06:17:18;;;;;;;;;;;;;;;26.80;59.85;101198.44;4971706;28;19926;-89
2022/07/25 06:19:43;;;;;;;;;;;;;;;26.77;59.96;101195.78;4959372;28;20423;-87
2022/07/25 06:22:10;;;;;;;;;;;;;;;26.73;60.10;101194.94;4975054;28;20023;-87
2022/07/25 06:24:35;;;;;;;;;;;;;;;26.87;59.73;101191.25;4974664;28;19925;-88
2022/07/25 06:27:03;;;;;;;;;;;;;;;26.84;59.50;101197.53;4990775;28;19945;-87
2022/07/25 06:29:28;;;;;;;;;;;;;;;26.89;59.63;101186.78;4985875;28;19925;-89
2022/07/25 06:31:54;;;;;;;;;;;;;;;26.89;59.59;101186.78;4956649;28;19922;-84
2022/07/25 06:34:19;;;;;;;;;;;;;;;26.93;59.49;101186.75;4956574;28;19945;-88
2022/07/25 06:36:52;;;;;;;;;;;;;;;26.89;59.52;101184.97;4989899;28;19921;-88
2022/07/25 06:39:17;;;;;;;;;;;;;;;26.91;59.33;101188.53;4978496;28;19922;-87
2022/07/25 06:41:43;;;;;;;;;;;;;;;26.93;59.36;101188.53;4972545;28;20012;-86
2022/07/25 06:44:09;;;;;;;;;;;;;;;26.91;59.35;101180.50;4975012;28;20384;-88
2022/07/25 06:46:35;;;;;;;;;;;;;;;26.93;59.51;101176.03;4958027;28;20383;-86
2022/07/25 06:49:00;;;;;;;;;;;;;;;26.91;59.67;101180.50;4990569;28;20385;-86
2022/07/25 06:51:25;;;;;;;;;;;;;;;26.93;59.61;101181.38;4967487;28;19977;-86
2022/07/25 06:53:51;;;;;;;;;;;;;;;26.94;59.52;101180.47;4947421;28;19964;-86
2022/07/25 06:56:17;;;;;;;;;;;;;;;26.89;59.38;101176.94;4964527;28;19921;-85
2022/07/25 06:58:42;;;;;;;;;;;;;;;26.90;59.56;101172.47;4986933;28;20308;-86
2022/07/25 07:01:07;;;;;;;;;;;;;;;26.95;59.57;101176.03;4970676;28;20325;-87
2022/07/25 07:03:36;;;;;;;;;;;;;;;26.96;59.45;101172.41;4972625;28;20384;-87
2022/07/25 07:06:03;;;;;;;;;;;;;;;26.97;59.51;101177.78;4956032;28;19922;-85
2022/07/25 07:08:29;;;;;;;;;;;;;;;26.99;59.38;101169.75;4953912;28;19925;-86
2022/07/25 07:10:54;;;;;;;;;;;;;;;27.01;59.09;101165.25;4937056;28;19922;-87
2022/07/25 07:13:22;;;;;;;;;;;;;;;27.01;59.37;101167.94;4937306;28;19923;-88
2022/07/25 07:15:48;;;;;;;;;;;;;;;26.98;59.36;101182.22;4939790;28;19918;-89
2022/07/25 07:18:15;;;;;;;;;;;;;;;27.03;59.26;101179.53;4955067;28;19918;-88
2022/07/25 07:20:41;;;;;;;;;;;;;;;27.06;58.99;101178.63;4954938;28;20377;-88
2022/07/25 07:23:07;;;;;;;;;;;;;;;27.04;59.09;101183.09;4940195;28;19918;-87
2022/07/25 07:25:32;;;;;;;;;;;;;;;26.93;59.65;101184.06;4948430;28;19961;-87
2022/07/25 07:27:58;;;;;;;;;;;;;;;27.04;59.38;101183.97;4942407;28;20420;-88
2022/07/25 07:30:23;;;;;;;;;;;;;;;27.02;59.36;101186.66;4955667;28;19925;-87
2022/07/25 07:32:49;;;;;;;;;;;;;;;26.99;59.27;101189.38;4972949;28;19922;-87
2022/07/25 07:35:18;;;;;;;;;;;;;;;26.97;59.41;101188.50;4940796;28;19953;-87
2022/07/25 07:37:44;;;;;;;;;;;;;;;27.03;59.41;101182.22;4950811;28;19921;-86
2022/07/25 07:40:10;;;;;;;;;;;;;;;27.02;59.43;101181.31;4949997;28;20018;-86
2022/07/25 07:42:40;;;;;;;;;;;;;;;27.07;59.15;101188.44;4938537;28;20312;-86
2022/07/25 07:45:09;;;;;;;;;;;;;;;27.06;59.20;101179.50;4956163;28;19929;-88
2022/07/25 07:47:35;;;;;;;;;;;;;;;27.02;59.51;101183.97;4973723;28;19922;-89
2022/07/25 07:50:00;;;;;;;;;;;;;;;27.07;59.15;101186.63;4946121;28;19969;-87
2022/07/25 07:52:25;;;;;;;;;;;;;;;27.05;59.55;101190.22;4955777;29;20292;-88
2022/07/25 07:57:35;;;;;;;;;;;;;;;27.11;59.29;101199.09;4956749;28;20450;-87
2022/07/25 08:00:00;;;;;;;;;;;;;;;27.08;59.20;101188.41;4944243;28;19922;-88
2022/07/25 08:02:26;;;;;;;;;;;;;;;27.09;59.15;101189.31;4959420;28;20370;-87
2022/07/25 08:04:51;;;;;;;;;;;;;;;27.10;59.38;101183.06;4959914;28;19925;-87
2022/07/25 08:07:17;;;;;;;;;;;;;;;27.13;59.40;101185.69;4972306;28;19929;-89
2022/07/25 08:09:42;;;;;;;;;;;;;;;27.09;59.19;101192.88;4983288;28;19968;-88
2022/07/25 08:12:09;;;;;;;;;;;;;;;27.12;59.39;101191.97;4979944;28;20302;-89
2022/07/25 08:14:34;;;;;;;;;;;;;;;27.14;59.51;101187.50;4968406;28;19925;-87
2022/07/25 08:16:59;;;;;;;;;;;;;;;27.12;59.58;101189.31;4967776;28;19922;-88
2022/07/25 08:19:25;;;;;;;;;;;;;;;27.07;59.56;101191.09;4964536;28;19929;-87
2022/07/25 08:21:50;;;;;;;;;;;;;;;27.14;59.14;101196.41;4976060;28;19977;-87
2022/07/25 08:24:16;;;;;;;;;;;;;;;27.07;59.37;101208.06;4994510;28;19929;-86
2022/07/25 08:26:42;;;;;;;;;;;;;;;27.10;59.63;101207.19;5001018;28;20418;-86
2022/07/25 08:29:08;;;;;;;;;;;;;;;27.08;59.74;101209.88;4995440;28;19991;-87
2022/07/25 08:31:33;;;;;;;;;;;;;;;27.06;59.61;101205.44;4994811;28;19997;-86
2022/07/25 08:33:58;;;;;;;;;;;;;;;27.09;59.75;101200.91;4994265;28;19961;-87
2022/07/25 08:36:24;;;;;;;;;;;;;;;27.11;59.76;101198.22;4993501;28;19945;-85
2022/07/25 08:38:49;;;;;;;;;;;;;;;27.09;59.39;101198.22;4983755;28;19918;-87
2022/07/25 08:41:15;;;;;;;;;;;;;;;27.12;59.47;101191.97;4974505;28;19953;-86
2022/07/25 08:43:40;;;;;;;;;;;;;;;27.12;59.76;101194.66;4972038;28;19934;-84
2022/07/25 08:46:06;;;;;;;;;;;;;;;27.12;59.67;101197.34;4974282;28;19930;-85
2022/07/25 08:48:31;;;;;;;;;;;;;;;27.13;59.69;101205.34;4993884;28;20292;-86
2022/07/25 08:50:57;;;;;;;;;;;;;;;27.07;59.98;101197.34;4975471;28;20360;-86
2022/07/25 08:53:23;;;;;;;;;;;;;;;27.10;60.02;101194.66;4974485;28;19922;-87
2022/07/25 08:55:51;;;;;;;;;;;;;;;27.04;60.28;101194.72;4963628;28;19918;-86
2022/07/25 08:58:17;;;;;;;;;;;;;;;27.13;59.62;101191.94;4972338;28;19988;-85
2022/07/25 09:00:43;;;;;;;;;;;;;;;27.13;59.61;101193.75;4976251;28;20331;-86
2022/07/25 09:03:08;;;;;;;;;;;;;;;27.11;59.93;101192.88;4977349;28;19925;-86
2022/07/25 09:05:34;;;;;;;;;;;;;;;27.14;59.69;101192.88;4976971;28;19925;-85
2022/07/25 09:08:26;;;;;;;;;;;;;;;27.15;59.81;101195.50;4961561;28;19924;-87
2022/07/25 09:10:51;;;;;;;;;;;;;;;27.18;59.51;101191.94;4991332;28;19975;-87
2022/07/25 09:13:17;;;;;;;;;;;;;;;27.15;59.88;101190.16;4974719;28;19914;-87
2022/07/25 09:15:47;;;;;;;;;;;;;;;27.16;59.85;101193.75;4970064;28;19922;-86
2022/07/25 09:18:13;;;;;;;;;;;;;;;27.18;59.75;101197.31;4972403;28;19928;-85
2022/07/25 09:20:49;;;;;;;;;;;;;;;27.15;59.71;101183.91;4988960;28;19922;-86
2022/07/25 09:23:26;;;;;;;;;;;;;;;27.16;59.87;101191.06;4976621;28;19918;-85
2022/07/25 09:25:51;;;;;;;;;;;;;;;27.19;59.80;101188.34;4984040;28;19924;-84
2022/07/25 09:28:18;;;;;;;;;;;;;;;27.21;59.68;101184.72;4959578;28;19918;-84
2022/07/25 09:30:57;;;;;;;;;;;;;;;27.22;59.64;101193.72;4975948;28;19918;-85
2022/07/25 09:33:22;;;;;;;;;;;;;;;27.20;60.05;101184.78;4974998;28;20432;-83
2022/07/25 09:35:48;;;;;;;;;;;;;;;27.24;59.73;101185.66;4959296;28;20005;-85
2022/07/25 09:38:14;;;;;;;;;;;;;;;27.19;60.02;101183.84;4957900;28;20410;-85
2022/07/25 09:40:39;;;;;;;;;;;;;;;27.21;59.78;101179.38;4968151;28;19977;-85
2022/07/25 09:43:05;;;;;;;;;;;;;;;27.21;59.84;101186.53;4983694;28;20017;-84
2022/07/25 09:45:30;;;;;;;;;;;;;;;27.20;59.91;101187.44;4959331;28;19925;-85
2022/07/25 09:47:57;;;;;;;;;;;;;;;27.22;60.00;101174.97;4991349;28;19922;-85
2022/07/25 09:50:23;;;;;;;;;;;;;;;27.24;60.03;101182.97;4975383;28;20371;-86
2022/07/25 09:52:52;;;;;;;;;;;;;;;27.26;60.02;101187.41;4992892;28;19914;-85
2022/07/25 09:55:18;;;;;;;;;;;;;;;27.23;60.16;101179.41;4992603;28;19957;-86
2022/07/25 09:57:44;;;;;;;;;;;;;;;27.23;59.84;101189.25;4958592;28;19968;-87
2022/07/25 10:00:11;;;;;;;;;;;;;;;27.26;60.40;101184.72;4967673;28;19918;-87
2022/07/25 10:02:39;;;;;;;;;;;;;;;27.30;60.19;101188.28;4958751;28;19932;-86
2022/07/25 10:05:08;;;;;;;;;;;;;;;27.27;60.01;101181.16;4971858;28;19921;-85
2022/07/25 10:07:35;;;;;;;;;;;;;;;27.25;60.07;101182.97;4964769;28;20408;-86
2022/07/25 10:10:01;;;;;;;;;;;;;;;27.30;59.94;101186.47;4969673;28;20301;-86
2022/07/25 10:12:26;;;;;;;;;;;;;;;27.32;59.79;101186.47;4956062;28;19922;-86
2022/07/25 10:15:04;;;;;;;;;;;;;;;27.33;59.84;101186.47;4972665;28;20381;-86
2022/07/25 10:17:29;;;;;;;;;;;;;;;27.32;59.93;101186.47;4976515;28;20024;-86
2022/07/25 10:19:55;;;;;;;;;;;;;;;27.32;60.00;101186.47;4963689;28;20057;-86
2022/07/25 10:22:20;;;;;;;;;;;;;;;27.36;60.05;101180.19;4957291;28;19918;-85
2022/07/25 10:24:46;;;;;;;;;;;;;;;27.32;60.10;101179.31;4959247;28;19976;-87
2022/07/25 10:27:13;;;;;;;;;;;;;;;27.26;60.27;101175.78;4969126;28;19922;-86
2022/07/25 10:29:39;;;;;;;;;;;;;;;27.26;60.24;101178.47;4966189;28;20000;-87
2022/07/25 10:32:09;;;;;;;;;;;;;;;27.25;60.34;101179.41;4968447;28;19926;-84
2022/07/25 10:34:34;;;;;;;;;;;;;;;27.28;60.10;101182.91;4969292;28;19922;-86
2022/07/25 10:37:09;;;;;;;;;;;;;;;27.26;60.18;101178.47;4990984;28;19921;-85
2022/07/25 10:39:38;;;;;;;;;;;;;;;27.33;59.91;101181.09;4983808;28;19926;-86
2022/07/25 10:42:04;;;;;;;;;;;;;;;27.32;60.22;101175.75;4964804;28;19929;-85
2022/07/25 10:44:45;;;;;;;;;;;;;;;27.32;60.42;101176.63;4981867;28;20315;-83
2022/07/25 10:47:11;;;;;;;;;;;;;;;27.31;60.76;101174.88;4982085;28;20017;-86
2022/07/25 10:49:41;;;;;;;;;;;;;;;27.34;60.36;101174.81;4975003;28;20433;-86
2022/07/25 10:52:06;;;;;;;;;;;;;;;27.31;60.93;101171.31;4976171;28;20414;-86
2022/07/25 10:54:33;;;;;;;;;;;;;;;27.34;60.63;101160.53;4947189;28;19926;-86
2022/07/25 10:56:58;;;;;;;;;;;;;;;27.37;60.96;101172.13;4960811;28;20388;-88
2022/07/25 10:59:28;;;;;;;;;;;;;;;27.37;60.61;101164.09;4964830;28;19969;-87
2022/07/25 11:01:54;;;;;;;;;;;;;;;27.36;61.32;101153.38;4970354;28;20012;-87
2022/07/25 11:04:20;;;;;;;;;;;;;;;27.37;60.92;101155.16;4962457;28;20073;-86
2022/07/25 11:06:46;;;;;;;;;;;;;;;27.38;60.91;101154.25;4975090;28;19921;-85
2022/07/25 11:09:16;;;;;;;;;;;;;;;27.38;60.72;101152.44;4967229;28;20020;-86
2022/07/25 11:11:46;;;;;;;;;;;;;;;27.41;60.88;101148.84;4965255;28;19923;-85
2022/07/25 11:14:41;;;;;;;;;;;;;;;27.41;60.92;101147.06;4967891;28;19937;-83
2022/07/25 11:17:13;;;;;;;;;;;;;;;27.36;61.48;101142.63;4952637;28;19976;-84
2022/07/25 11:19:38;;;;;;;;;;;;;;;27.37;61.25;101148.00;4966968;28;19917;-86
2022/07/25 11:22:04;;;;;;;;;;;;;;;27.36;61.47;101148.88;4990810;28;19948;-84
2022/07/25 11:24:39;;;;;;;;;;;;;;;27.36;61.39;101148.00;4991299;28;19925;-86
2022/07/25 11:27:05;;;;;;;;;;;;;;;27.39;61.46;101145.31;4976876;28;20382;-85
2022/07/25 11:29:31;;;;;;;;;;;;;;;27.41;61.24;101140.78;4974168;28;19918;-85
2022/07/25 11:31:56;;;;;;;;;;;;;;;27.41;61.10;101136.34;4977260;28;19918;-84
2022/07/25 11:34:23;;;;;;;;;;;;;;;27.39;61.07;101134.56;4983513;28;19922;-86
2022/07/25 11:36:49;;;;;;;;;;;;;;;27.44;61.02;101138.09;4968096;28;19929;-83
2022/07/25 11:39:16;;;;;;;;;;;;;;;27.47;61.07;101137.16;4973493;28;19921;-86
2022/07/25 11:41:41;;;;;;;;;;;;;;;27.48;60.73;101141.63;4958724;28;19977;-86
2022/07/25 11:44:07;;;;;;;;;;;;;;;27.51;61.01;101142.47;4980413;28;19921;-87
2022/07/25 11:46:43;;;;;;;;;;;;;;;27.55;60.76;101140.66;4995305;28;19973;-85
2022/07/25 11:49:09;;;;;;;;;;;;;;;27.53;60.78;101137.09;4975617;28;19957;-86
2022/07/25 11:51:37;;;;;;;;;;;;;;;27.51;60.90;101137.09;4978480;28;19921;-85
2022/07/25 11:54:09;;;;;;;;;;;;;;;27.52;60.69;101136.22;4969128;28;20008;-85
2022/07/25 11:56:38;;;;;;;;;;;;;;;27.55;60.79;101130.81;4979873;28;19918;-85
2022/07/25 11:59:04;;;;;;;;;;;;;;;27.54;60.84;101137.09;4977326;28;19980;-85
2022/07/25 12:01:40;;;;;;;;;;;;;;;27.55;60.63;101146.03;4995484;28;19922;-85
2022/07/25 12:04:17;;;;;;;;;;;;;;;27.57;60.88;101146.91;4965819;28;19922;-85
2022/07/25 12:06:43;;;;;;;;;;;;;;;27.51;60.58;101142.47;4995047;28;19930;-85
2022/07/25 12:09:13;;;;;;;;;;;;;;;27.53;60.67;101142.47;4972809;28;19921;-90
2022/07/25 12:11:39;;;;;;;;;;;;;;;27.53;60.74;101137.97;4961584;28;20005;-87
2022/07/25 12:14:06;;;;;;;;;;;;;;;27.48;60.56;101138.97;5001117;28;19993;-86
2022/07/25 12:16:31;;;;;;;;;;;;;;;27.59;60.33;101137.94;4957866;28;20288;-87
2022/07/25 12:18:57;;;;;;;;;;;;;;;27.64;60.22;101132.50;4994085;28;20029;-87
2022/07/25 12:21:26;;;;;;;;;;;;;;;27.60;60.30;101137.03;4973691;28;19922;-87
2022/07/25 12:23:51;;;;;;;;;;;;;;;27.61;60.57;101135.25;4957575;28;19922;-86
2022/07/25 12:26:19;;;;;;;;;;;;;;;27.63;60.47;101128.06;4981006;28;19945;-87
2022/07/25 12:28:46;;;;;;;;;;;;;;;27.64;60.36;101137.00;4964784;28;19917;-86
2022/07/25 12:31:11;;;;;;;;;;;;;;;27.59;60.53;101129.88;4976513;28;19921;-85
2022/07/25 12:33:37;;;;;;;;;;;;;;;27.58;60.55;101128.13;4971492;28;19932;-87
2022/07/25 12:36:02;;;;;;;;;;;;;;;27.60;60.33;101126.31;4977804;28;19918;-87
2022/07/25 12:38:28;;;;;;;;;;;;;;;27.64;60.14;101127.13;4989477;28;19926;-88
2022/07/25 12:40:54;;;;;;;;;;;;;;;27.60;60.59;101125.38;4980241;28;20414;-88
2022/07/25 12:43:19;;;;;;;;;;;;;;;27.61;60.38;101124.50;4969990;28;19980;-86
2022/07/25 12:45:45;;;;;;;;;;;;;;;27.63;60.90;101128.06;4956059;28;20320;-86
2022/07/25 12:48:16;;;;;;;;;;;;;;;27.68;60.45;101122.63;4996935;28;19953;-96
2022/07/25 12:51:11;;;;;;;;;;;;;;;27.71;60.14;101123.50;4972019;28;19944;-92
2022/07/25 12:53:37;;;;;;;;;;;;;;;27.72;60.42;101121.69;4971024;28;20037;-89
2022/07/25 12:56:03;;;;;;;;;;;;;;;27.70;60.59;101126.19;4988084;28;20399;-88
2022/07/25 12:58:28;;;;;;;;;;;;;;;27.72;60.30;101116.31;4978062;28;19918;-92
2022/07/25 13:00:53;;;;;;;;;;;;;;;27.73;60.73;101120.78;4976187;28;19913;-88
2022/07/25 13:03:19;;;;;;;;;;;;;;;27.71;60.42;101111.88;4973601;28;19926;-86
2022/07/25 13:05:44;;;;;;;;;;;;;;;27.70;60.92;101107.41;4966443;28;19944;-87
2022/07/25 13:08:10;;;;;;;;;;;;;;;27.73;60.53;101105.59;4991153;28;20344;-86
2022/07/25 13:10:35;;;;;;;;;;;;;;;27.69;60.80;101095.78;4959534;28;20285;-88
2022/07/25 13:13:01;;;;;;;;;;;;;;;27.73;60.50;101092.16;4989124;28;19918;-86
2022/07/25 13:15:27;;;;;;;;;;;;;;;27.72;61.04;101100.22;4991648;28;20418;-86
2022/07/25 13:17:52;;;;;;;;;;;;;;;27.73;60.72;101099.31;4974090;28;19918;-81
2022/07/25 13:20:18;;;;;;;;;;;;;;;27.77;60.80;101093.00;4992648;28;19917;-81